createdAt,value
2023-01-11T00:02:18.481Z,0
2023-01-11T00:04:44.556Z,0
2023-01-11T00:07:10.659Z,0
2023-01-11T00:09:36.771Z,0
2023-01-11T00:12:02.842Z,0
2023-01-11T00:14:28.935Z,0
2023-01-11T00:16:55.041Z,0
2023-01-11T00:19:20.153Z,0
2023-01-11T00:21:46.250Z,0
2023-01-11T00:24:12.344Z,0
2023-01-11T00:26:38.425Z,0
2023-01-11T00:29:04.545Z,0
2023-01-11T00:31:30.634Z,0
2023-01-11T00:33:56.723Z,0
2023-01-11T00:36:22.828Z,0
2023-01-11T00:38:48.920Z,0
2023-01-11T00:41:15.009Z,0
2023-01-11T00:43:41.119Z,0
2023-01-11T00:46:07.197Z,0
2023-01-11T00:48:33.294Z,0
2023-01-11T00:50:58.416Z,0
2023-01-11T00:53:24.577Z,0
2023-01-11T00:55:50.599Z,0
2023-01-11T00:58:16.724Z,0
2023-01-11T01:00:42.785Z,0
2023-01-11T01:03:08.892Z,0
2023-01-11T01:05:34.998Z,0
2023-01-11T01:08:01.112Z,0
2023-01-11T01:10:27.182Z,0
2023-01-11T01:12:53.347Z,0
2023-01-11T01:15:19.361Z,0
2023-01-11T01:17:45.478Z,0
2023-01-11T01:20:11.560Z,0
2023-01-11T01:22:36.668Z,0
2023-01-11T01:25:02.800Z,0
2023-01-11T01:27:28.861Z,0
2023-01-11T01:29:54.975Z,0
2023-01-11T01:32:21.055Z,0
2023-01-11T01:34:47.171Z,0
2023-01-11T01:37:13.250Z,0
2023-01-11T01:39:39.347Z,0
2023-01-11T01:42:05.448Z,0
2023-01-11T01:44:31.541Z,0
2023-01-11T01:46:57.633Z,0
2023-01-11T01:49:23.767Z,0
2023-01-11T01:51:49.816Z,0
2023-01-11T01:54:14.928Z,0
2023-01-11T01:56:41.036Z,0
2023-01-11T01:59:07.126Z,0
2023-01-11T02:01:33.223Z,0
2023-01-11T02:03:59.322Z,0
2023-01-11T02:06:25.408Z,0
2023-01-11T02:08:51.528Z,0
2023-01-11T02:11:17.607Z,0
2023-01-11T02:13:43.712Z,0
2023-01-11T02:16:09.876Z,0
2023-01-11T02:18:36.004Z,0
2023-01-11T02:21:01.986Z,0
2023-01-11T02:23:28.089Z,0
2023-01-11T02:25:53.201Z,0
2023-01-11T02:28:19.301Z,0
2023-01-11T02:30:45.402Z,0
2023-01-11T02:33:11.494Z,0
2023-01-11T02:35:37.581Z,0
2023-01-11T02:38:03.681Z,0
2023-01-11T02:40:29.773Z,0
2023-01-11T02:42:55.884Z,0
2023-01-11T02:45:21.967Z,0
2023-01-11T02:47:48.063Z,0
2023-01-11T02:50:14.155Z,0
2023-01-11T02:52:40.262Z,0
2023-01-11T02:55:06.354Z,0
2023-01-11T02:57:31.459Z,0
2023-01-11T02:59:57.568Z,0
2023-01-11T03:02:23.667Z,0
2023-01-11T03:04:49.748Z,0
2023-01-11T03:07:15.840Z,0
2023-01-11T03:09:41.945Z,0
2023-01-11T03:12:07.061Z,0
2023-01-11T03:14:33.164Z,0
2023-01-11T03:16:59.236Z,0
2023-01-11T03:19:25.345Z,0
2023-01-11T03:21:51.441Z,0
2023-01-11T03:24:17.569Z,0
2023-01-11T03:26:43.640Z,0
2023-01-11T03:29:09.734Z,0
2023-01-11T03:31:35.980Z,0
2023-01-11T03:34:01.918Z,0
2023-01-11T03:36:28.003Z,0
2023-01-11T03:38:54.134Z,0
2023-01-11T03:41:20.206Z,0
2023-01-11T03:43:45.323Z,0
2023-01-11T03:46:11.411Z,0
2023-01-11T03:48:37.533Z,0
2023-01-11T03:51:03.597Z,0
2023-01-11T03:53:29.699Z,0
2023-01-11T03:55:55.791Z,0
2023-01-11T03:58:21.906Z,0
2023-01-11T04:00:47.987Z,0
2023-01-11T04:03:14.081Z,0
2023-01-11T04:05:40.184Z,0
2023-01-11T04:08:06.277Z,0
2023-01-11T04:10:32.378Z,0
2023-01-11T04:12:58.468Z,0
2023-01-11T04:15:23.580Z,0
2023-01-11T04:17:49.673Z,0
2023-01-11T04:20:15.766Z,0
2023-01-11T04:22:41.853Z,0
2023-01-11T04:25:07.958Z,0
2023-01-11T04:27:34.039Z,0
2023-01-11T04:30:00.161Z,0
2023-01-11T04:32:26.239Z,0
2023-01-11T04:34:52.337Z,0
2023-01-11T04:37:18.431Z,0
2023-01-11T04:39:44.528Z,0
2023-01-11T04:42:10.630Z,0
2023-01-11T04:44:36.729Z,0
2023-01-11T04:47:01.824Z,0
2023-01-11T04:49:27.926Z,0
2023-01-11T04:51:54.043Z,0
2023-01-11T04:54:20.162Z,0
2023-01-11T04:56:46.209Z,0
2023-01-11T04:59:12.303Z,0
2023-01-11T05:01:38.399Z,0
2023-01-11T05:04:04.509Z,0
2023-01-11T05:06:30.608Z,0
2023-01-11T05:08:56.694Z,0
2023-01-11T05:11:22.800Z,0
2023-01-11T05:13:48.903Z,0
2023-01-11T05:16:14.970Z,0
2023-01-11T05:18:40.089Z,0
2023-01-11T05:21:06.198Z,0
2023-01-11T05:23:32.284Z,0
2023-01-11T05:25:58.375Z,0
2023-01-11T05:28:24.472Z,0
2023-01-11T05:30:50.576Z,0
2023-01-11T05:33:16.661Z,0
2023-01-11T05:35:42.762Z,0
2023-01-11T05:38:08.847Z,0
2023-01-11T05:40:34.964Z,0
2023-01-11T05:43:01.063Z,0
2023-01-11T05:45:27.176Z,0
2023-01-11T05:47:53.240Z,0
2023-01-11T05:50:19.462Z,0
2023-01-11T05:52:45.550Z,0
2023-01-11T05:55:11.652Z,0
2023-01-11T05:57:37.737Z,0
2023-01-11T06:00:03.834Z,0
2023-01-11T06:02:29.940Z,0
2023-01-11T06:04:56.039Z,0
2023-01-11T06:07:22.125Z,0
2023-01-11T06:09:48.255Z,0
2023-01-11T06:12:14.322Z,0
2023-01-11T06:14:40.421Z,0
2023-01-11T06:17:06.511Z,0
2023-01-11T06:19:32.606Z,0
2023-01-11T06:21:57.711Z,0
2023-01-11T06:24:23.814Z,0
2023-01-11T06:26:49.920Z,0
2023-01-11T06:29:16.011Z,0
2023-01-11T06:31:42.093Z,0
2023-01-11T06:34:08.204Z,0
2023-01-11T06:36:34.281Z,0
2023-01-11T06:39:00.384Z,0
2023-01-11T06:41:26.480Z,0
2023-01-11T06:43:52.575Z,0
2023-01-11T06:46:18.712Z,4
2023-01-11T06:48:44.776Z,4
2023-01-11T06:51:10.871Z,8
2023-01-11T06:53:35.985Z,4
2023-01-11T06:56:02.093Z,8
2023-01-11T06:58:28.303Z,16
2023-01-11T07:00:54.287Z,24
2023-01-11T07:03:20.352Z,36
2023-01-11T07:05:46.457Z,48
2023-01-11T07:08:12.601Z,60
2023-01-11T07:10:38.649Z,72
2023-01-11T07:13:04.798Z,84
2023-01-11T07:15:30.905Z,100
2023-01-11T07:17:56.944Z,116
2023-01-11T07:20:23.023Z,136
2023-01-11T07:22:49.123Z,156
2023-01-11T07:25:14.247Z,188
2023-01-11T07:27:40.347Z,224
2023-01-11T07:30:06.463Z,252
2023-01-11T07:39:50.874Z,441
2023-01-11T07:42:15.938Z,489
2023-01-11T07:44:41.164Z,538
2023-01-11T07:47:06.182Z,606
2023-01-11T07:49:32.351Z,686
2023-01-11T07:51:57.385Z,758
2023-01-11T07:54:23.533Z,779
2023-01-11T07:56:49.584Z,823
2023-01-11T07:59:15.697Z,899
2023-01-11T08:01:41.776Z,931
2023-01-11T08:04:07.900Z,1024
2023-01-11T08:06:34.085Z,1092
2023-01-11T08:09:00.089Z,1252
2023-01-11T08:11:26.166Z,1357
2023-01-11T08:13:51.414Z,1433
2023-01-11T08:16:16.384Z,1477
2023-01-11T08:18:41.624Z,1690
2023-01-11T08:21:06.682Z,1803
2023-01-11T08:23:32.717Z,1975
2023-01-11T08:25:58.811Z,1891
2023-01-11T08:28:24.896Z,1722
2023-01-11T08:30:51.007Z,1975
2023-01-11T08:33:17.087Z,2353
2023-01-11T08:35:43.296Z,2541
2023-01-11T08:38:09.298Z,2638
2023-01-11T08:40:35.419Z,2541
2023-01-11T08:43:01.500Z,2381
2023-01-11T08:45:27.591Z,2457
2023-01-11T08:47:53.669Z,2429
2023-01-11T08:50:19.793Z,2545
2023-01-11T08:52:44.897Z,2385
2023-01-11T08:55:11.031Z,2333
2023-01-11T08:57:37.097Z,2353
2023-01-11T09:00:03.191Z,2357
2023-01-11T09:02:29.271Z,2272
2023-01-11T09:04:55.419Z,2224
2023-01-11T09:07:21.477Z,2236
2023-01-11T09:09:46.661Z,2192
2023-01-11T09:12:11.690Z,1859
2023-01-11T09:14:36.821Z,1313
2023-01-11T09:17:01.936Z,1437
2023-01-11T09:19:27.070Z,1341
2023-01-11T09:21:52.225Z,1321
2023-01-11T09:24:17.339Z,1204
2023-01-11T09:26:42.392Z,1224
2023-01-11T09:29:08.503Z,1120
2023-01-11T09:31:34.577Z,1252
2023-01-11T09:34:00.697Z,1333
2023-01-11T09:36:26.796Z,1425
2023-01-11T09:38:52.870Z,1437
2023-01-11T09:41:18.976Z,1180
2023-01-11T09:43:45.072Z,1052
2023-01-11T09:46:11.154Z,1007
2023-01-11T09:48:37.279Z,1080
2023-01-11T09:51:03.493Z,1140
2023-01-11T09:53:29.461Z,1200
2023-01-11T09:55:55.611Z,1080
2023-01-11T09:58:20.664Z,1032
2023-01-11T10:00:46.763Z,1144
2023-01-11T10:03:12.835Z,1264
2023-01-11T10:05:38.941Z,1301
2023-01-11T10:08:05.068Z,1285
2023-01-11T10:18:20.586Z,1240
2023-01-11T10:18:20.624Z,1096
2023-01-11T10:18:21.335Z,1168
2023-01-11T10:18:21.870Z,1164
2023-01-11T10:20:12.596Z,1256
2023-01-11T10:22:37.703Z,1256
2023-01-11T10:25:02.835Z,1224
2023-01-11T10:27:28.063Z,1160
2023-01-11T10:29:54.062Z,1136
2023-01-11T10:32:20.140Z,1056
2023-01-11T10:34:46.270Z,991
2023-01-11T10:37:12.349Z,983
2023-01-11T10:39:38.418Z,1015
2023-01-11T10:42:04.520Z,1003
2023-01-11T10:44:30.605Z,939
2023-01-11T10:46:56.880Z,995
2023-01-11T10:49:22.997Z,1044
2023-01-11T10:51:49.056Z,1140
2023-01-11T10:54:15.149Z,1168
2023-01-11T10:56:41.358Z,1172
2023-01-11T10:59:06.421Z,1172
2023-01-11T11:01:32.485Z,1132
2023-01-11T11:03:58.440Z,1212
2023-01-11T11:06:24.657Z,1317
2023-01-11T11:08:50.842Z,1349
2023-01-11T11:11:16.866Z,1417
2023-01-11T11:13:42.789Z,1554
2023-01-11T11:16:07.971Z,1590
2023-01-11T11:18:33.226Z,1690
2023-01-11T11:20:58.150Z,1734
2023-01-11T11:23:23.490Z,1558
2023-01-11T11:25:49.398Z,1425
2023-01-11T11:28:15.672Z,1461
2023-01-11T11:30:41.761Z,1558
2023-01-11T11:33:07.753Z,1835
2023-01-11T11:35:33.994Z,1714
2023-01-11T11:37:59.900Z,1718
2023-01-11T11:40:26.115Z,1646
2023-01-11T11:42:52.301Z,1517
2023-01-11T11:45:18.145Z,1686
2023-01-11T11:47:44.347Z,1646
2023-01-11T11:50:10.446Z,1602
2023-01-11T11:52:36.415Z,1722
2023-01-11T11:55:01.536Z,2015
2023-01-11T11:57:27.620Z,2011
2023-01-11T11:59:53.739Z,1939
2023-01-11T12:02:19.821Z,1867
2023-01-11T12:04:45.904Z,1835
2023-01-11T12:07:12.010Z,2043
2023-01-11T12:09:38.098Z,2027
2023-01-11T12:12:03.235Z,2031
2023-01-11T12:14:28.348Z,1742
2023-01-11T12:16:54.428Z,1734
2023-01-11T12:19:20.518Z,1762
2023-01-11T12:21:46.620Z,1963
2023-01-11T12:24:12.719Z,2176
2023-01-11T12:26:38.832Z,2120
2023-01-11T12:29:04.899Z,2132
2023-01-11T12:31:31.004Z,2240
2023-01-11T12:33:57.109Z,2228
2023-01-11T12:36:23.202Z,1758
2023-01-11T12:38:49.295Z,1642
2023-01-11T12:41:15.391Z,1678
2023-01-11T12:43:41.477Z,1706
2023-01-11T12:46:06.596Z,1702
2023-01-11T12:48:32.685Z,1795
2023-01-11T12:50:58.785Z,1903
2023-01-11T12:53:24.874Z,1807
2023-01-11T12:55:50.969Z,1618
2023-01-11T12:58:17.073Z,1550
2023-01-11T13:00:43.155Z,1521
2023-01-11T13:03:08.270Z,1542
2023-01-11T13:05:33.395Z,1501
2023-01-11T13:07:59.478Z,1349
2023-01-11T13:10:25.577Z,1260
2023-01-11T13:12:51.695Z,1256
2023-01-11T13:15:17.768Z,1240
2023-01-11T13:17:43.871Z,1405
2023-01-11T13:20:09.969Z,1582
2023-01-11T13:22:36.059Z,1554
2023-01-11T13:25:02.163Z,1485
2023-01-11T13:27:28.239Z,1513
2023-01-11T13:29:54.360Z,1654
2023-01-11T13:32:20.434Z,1542
2023-01-11T13:34:46.621Z,1614
2023-01-11T13:37:11.670Z,1694
2023-01-11T13:39:37.746Z,1694
2023-01-11T13:42:03.850Z,1690
2023-01-11T13:44:29.935Z,1718
2023-01-11T13:46:56.052Z,1726
2023-01-11T13:49:22.153Z,1493
2023-01-11T13:51:48.219Z,1044
2023-01-11T13:54:13.342Z,1116
2023-01-11T13:56:38.449Z,1060
2023-01-11T13:59:03.579Z,1003
2023-01-11T14:01:28.734Z,991
2023-01-11T14:03:53.816Z,871
2023-01-11T14:06:18.926Z,915
2023-01-11T14:08:45.019Z,927
2023-01-11T14:11:11.103Z,935
2023-01-11T14:13:37.207Z,811
2023-01-11T14:16:03.326Z,855
2023-01-11T14:18:29.406Z,1052
2023-01-11T14:20:55.505Z,827
2023-01-11T14:23:21.600Z,983
2023-01-11T14:25:47.687Z,1076
2023-01-11T14:28:13.781Z,855
2023-01-11T14:30:39.873Z,738
2023-01-11T14:33:05.965Z,501
2023-01-11T14:35:32.088Z,357
2023-01-11T14:37:58.167Z,313
2023-01-11T14:40:24.253Z,281
2023-01-11T14:42:50.363Z,526
2023-01-11T14:45:16.460Z,622
2023-01-11T14:47:42.540Z,887
2023-01-11T14:50:08.647Z,819
2023-01-11T14:52:34.740Z,1389
2023-01-11T14:55:00.879Z,1774
2023-01-11T14:57:26.943Z,1445
2023-01-11T14:59:53.042Z,1044
2023-01-11T15:02:19.114Z,694
2023-01-11T15:04:45.237Z,574
2023-01-11T15:07:10.334Z,614
2023-01-11T15:09:35.449Z,730
2023-01-11T15:12:00.567Z,754
2023-01-11T15:14:25.677Z,658
2023-01-11T15:16:51.780Z,630
2023-01-11T15:19:17.883Z,538
2023-01-11T15:21:43.978Z,449
2023-01-11T15:24:10.076Z,365
2023-01-11T15:26:36.155Z,281
2023-01-11T15:29:02.256Z,216
2023-01-11T15:31:28.352Z,192
2023-01-11T15:33:54.459Z,156
2023-01-11T15:36:20.534Z,120
2023-01-11T15:38:46.632Z,96
2023-01-11T15:41:12.729Z,80
2023-01-11T15:43:38.828Z,56
2023-01-11T15:46:03.943Z,44
2023-01-11T15:48:30.023Z,36
2023-01-11T15:50:56.124Z,28
2023-01-11T15:53:22.206Z,24
2023-01-11T15:55:48.303Z,20
2023-01-11T15:58:14.413Z,12
2023-01-11T16:00:40.497Z,8
2023-01-11T16:03:05.610Z,8
2023-01-11T16:05:30.722Z,8
2023-01-11T16:07:55.856Z,4
2023-01-11T16:10:20.973Z,4
2023-01-11T16:12:46.104Z,4
2023-01-11T16:15:11.207Z,0
2023-01-11T16:17:37.307Z,0
2023-01-11T16:20:03.398Z,0
2023-01-11T16:22:29.478Z,0
2023-01-11T16:24:55.575Z,0
2023-01-11T16:27:21.683Z,0
2023-01-11T16:29:47.774Z,0
2023-01-11T16:32:13.872Z,0
2023-01-11T16:34:39.961Z,0
2023-01-11T16:37:06.083Z,0
2023-01-11T16:39:32.149Z,0
2023-01-11T16:41:58.250Z,0
2023-01-11T16:44:24.341Z,0
2023-01-11T16:46:49.463Z,0
2023-01-11T16:49:15.573Z,0
2023-01-11T16:51:41.638Z,0
2023-01-11T16:54:07.780Z,0
2023-01-11T16:56:33.830Z,0
2023-01-11T16:58:59.938Z,0
2023-01-11T17:01:26.028Z,0
2023-01-11T17:03:51.181Z,0
2023-01-11T17:06:16.253Z,0
2023-01-11T17:08:42.367Z,0
2023-01-11T17:11:08.482Z,0
2023-01-11T17:13:34.540Z,0
2023-01-11T17:16:00.655Z,0
2023-01-11T17:18:26.738Z,0
2023-01-11T17:20:52.845Z,0
2023-01-11T17:23:18.939Z,0
2023-01-11T17:25:45.036Z,0
2023-01-11T17:28:11.121Z,0
2023-01-11T17:30:37.223Z,0
2023-01-11T17:35:29.420Z,0
2023-01-11T17:37:54.530Z,0
2023-01-11T17:40:20.645Z,0
2023-01-11T17:42:46.755Z,0
2023-01-11T17:45:12.818Z,0
2023-01-11T17:47:38.899Z,0
2023-01-11T17:50:05.001Z,0
2023-01-11T17:52:31.115Z,0
2023-01-11T17:54:57.185Z,0
2023-01-11T17:57:22.306Z,0
2023-01-11T17:59:47.429Z,0
2023-01-11T18:02:12.566Z,0
2023-01-11T18:04:37.755Z,0
2023-01-11T18:07:02.794Z,0
2023-01-11T18:09:27.892Z,0
2023-01-11T18:11:53.994Z,0
2023-01-11T18:14:20.116Z,0
2023-01-11T18:16:46.190Z,0
2023-01-11T18:19:12.271Z,0
2023-01-11T18:21:38.380Z,0
2023-01-11T18:24:04.474Z,0
2023-01-11T18:26:30.553Z,0
2023-01-11T18:28:56.660Z,0
2023-01-11T18:31:22.762Z,0
2023-01-11T18:33:48.857Z,0
2023-01-11T18:36:14.953Z,0
2023-01-11T18:38:41.059Z,0
2023-01-11T18:41:06.144Z,0
2023-01-11T18:43:32.261Z,0
2023-01-11T18:45:58.355Z,0
2023-01-11T18:48:24.436Z,0
2023-01-11T18:50:50.542Z,0
2023-01-11T18:53:16.647Z,0
2023-01-11T18:55:42.773Z,0
2023-01-11T19:00:33.955Z,0
2023-01-11T19:02:59.075Z,0
2023-01-11T19:05:24.204Z,0
2023-01-11T19:07:49.323Z,0
2023-01-11T19:10:14.460Z,0
2023-01-11T19:12:40.512Z,0
2023-01-11T19:15:06.617Z,0
2023-01-11T19:17:32.716Z,0
2023-01-11T19:19:58.800Z,0
2023-01-11T19:22:24.957Z,0
2023-01-11T19:24:51.008Z,0
2023-01-11T19:27:17.104Z,0
2023-01-11T19:29:42.215Z,0
2023-01-11T19:32:08.308Z,0
2023-01-11T19:34:34.421Z,0
2023-01-11T19:37:00.491Z,0
2023-01-11T19:39:26.622Z,0
2023-01-11T19:41:52.686Z,0
2023-01-11T19:44:18.812Z,0
2023-01-11T19:46:44.873Z,0
2023-01-11T19:49:10.015Z,0
2023-01-11T19:51:35.135Z,0
2023-01-11T19:54:00.268Z,0
2023-01-11T19:56:25.375Z,0
2023-01-11T19:58:51.449Z,0
2023-01-11T20:01:17.550Z,0
2023-01-11T20:03:43.650Z,0
2023-01-11T20:06:09.731Z,0
2023-01-11T20:08:35.841Z,0
2023-01-11T20:11:01.975Z,0
2023-01-11T20:13:28.023Z,0
2023-01-11T20:15:54.129Z,0
2023-01-11T20:18:20.216Z,0
2023-01-11T20:20:46.584Z,0
2023-01-11T20:23:12.408Z,0
2023-01-11T20:25:38.496Z,0
2023-01-11T20:28:03.631Z,0
2023-01-11T20:30:29.728Z,0
2023-01-11T20:32:55.854Z,0
2023-01-11T20:35:21.934Z,0
2023-01-11T20:37:47.995Z,0
2023-01-11T20:40:14.095Z,0
2023-01-11T20:42:40.182Z,0
2023-01-11T20:45:05.306Z,0
2023-01-11T20:47:30.428Z,0
2023-01-11T20:49:55.531Z,0
2023-01-11T20:52:20.635Z,0
2023-01-11T20:54:46.753Z,0
2023-01-11T20:57:12.864Z,0
2023-01-11T20:59:38.944Z,0
2023-01-11T21:02:05.035Z,0
2023-01-11T21:04:31.142Z,0
2023-01-11T21:06:57.232Z,0
2023-01-11T21:09:23.368Z,0
2023-01-11T21:11:49.431Z,0
2023-01-11T21:14:15.511Z,0
2023-01-11T21:16:41.612Z,0
2023-01-11T21:19:07.707Z,0
2023-01-11T21:21:33.811Z,0
2023-01-11T21:23:58.906Z,0
2023-01-11T21:26:25.022Z,0
2023-01-11T21:28:51.103Z,0
2023-01-11T21:31:17.200Z,0
2023-01-11T21:33:43.314Z,0
2023-01-11T21:36:09.403Z,0
2023-01-11T21:38:35.491Z,0
2023-01-11T21:41:00.601Z,0
2023-01-11T21:43:25.711Z,0
2023-01-11T21:45:50.840Z,0
2023-01-11T21:48:15.939Z,0
2023-01-11T21:50:42.070Z,0
2023-01-11T21:53:08.128Z,0
2023-01-11T21:55:34.234Z,0
2023-01-11T21:58:00.329Z,0
2023-01-11T22:00:26.433Z,0
2023-01-11T22:02:52.532Z,0
2023-01-11T22:05:18.618Z,0
2023-01-11T22:07:44.711Z,0
2023-01-11T22:10:10.877Z,0
2023-01-11T22:12:36.906Z,0
2023-01-11T22:15:03.006Z,0
2023-01-11T22:17:29.097Z,0
2023-01-11T22:19:54.215Z,0
2023-01-11T22:22:20.312Z,0
2023-01-11T22:24:46.390Z,0
2023-01-11T22:27:12.505Z,0
2023-01-11T22:29:38.577Z,0
2023-01-11T22:32:04.674Z,0
2023-01-11T22:34:30.855Z,0
2023-01-11T22:36:55.975Z,0
2023-01-11T22:39:20.997Z,0
2023-01-11T22:41:47.115Z,0
2023-01-11T22:44:13.198Z,0
2023-01-11T22:46:39.303Z,0
2023-01-11T22:49:05.420Z,0
2023-01-11T22:51:31.495Z,0
2023-01-11T22:53:57.673Z,0
2023-01-11T22:56:23.677Z,0
2023-01-11T22:58:49.782Z,0
2023-01-11T23:01:15.883Z,0
2023-01-11T23:03:41.955Z,0
2023-01-11T23:06:08.070Z,0
2023-01-11T23:08:34.169Z,0
2023-01-11T23:10:59.349Z,0
2023-01-11T23:13:25.359Z,0
2023-01-11T23:15:51.461Z,0
2023-01-11T23:18:17.624Z,0
2023-01-11T23:20:43.642Z,0
2023-01-11T23:23:09.742Z,0
2023-01-11T23:25:35.837Z,0
2023-01-11T23:28:00.954Z,0
2023-01-11T23:30:26.069Z,0
2023-01-11T23:32:51.192Z,0
2023-01-11T23:35:16.313Z,0
2023-01-11T23:37:42.406Z,0
2023-01-11T23:40:08.488Z,0
2023-01-11T23:42:34.590Z,0
2023-01-11T23:45:00.701Z,0
2023-01-11T23:47:26.800Z,0
2023-01-11T23:49:52.865Z,0
2023-01-11T23:52:18.979Z,0
2023-01-11T23:54:45.108Z,0
2023-01-11T23:57:11.172Z,0
2023-01-11T23:59:37.316Z,0
